Main page
METAR-TAF:

METAR-TAF

Airports :

Riga International Airport

Riga, Latvia

latitude: 56-55N, longitude: 023-58E, elevation: 10 m

Current weather observation

The report was made 27 minutes ago, at 19:50 UTC
Wind 2 kt from variable directions
Temperature 1°C
Humidity 100%
Pressure 1023 hPa
Visibility: 0500 m
Broken clouds at a height of 100 ft
fog

METAR: EVRA 201950Z VRB02KT 0700 0500 R36/1500D FG BKN001 01/01 Q1023 R18/090095 NOSIG

Time: 23:17 (20:17 UTC)

Forecast

The report was made 2 hours and 5 minutes ago, at 18:12 UTC
Forecast valid from 20 at 18 UTC to 21 at 18 UTC
Wind 5 kt from the South
Visibility: 1500 m
Broken clouds at a height of 400 ft
mist
Temporary
from 20 at 18 UTC to 21 at 06 UTC
Visibility: 0500 m
Broken clouds at a height of 100 ft
freezing fog
Becoming
from 21 at 06 UTC to 21 at 08 UTC
Visibility: 9000 m
Broken clouds at a height of 3000 ft

TAF: EVRA 201812Z 2018/2118 18005KT 1500 BR BKN004 TEMPO 2018/2106 0500 FZFG BKN001 BECMG 2106/2108 9000 NSW BKN030

Weather observations and forecasts of more than 4000 airports (METAR and TAF reports).

The available stations are represented by yellow and red dots on the map.

Hover mouse over dot to see the name of the station.

Then click to see weather observations and forecasts.

To change the map : click on the green buttons with a black cross to zoom in, on the green button with a dash to zoom out, or on the green arrows for adjacent maps.


METAR-TAF: